Time;durP1;ratioP1;P1;durP2;ratioP2;P2;SDS_P1;SDS_P2;PMS_P1;PMS_P2;Temp;Humidity;BMP_temperature;BMP_pressure;BME280_temperature;BME280_humidity;BME280_pressure;Samples;Min_cycle;Max_cycle;Signal;HPM_P1;HPM_P2
2024/01/24 00:01:34;;;;;;;23.17;1.13;;;11.60;99.90;;;;;;5017559;28;20741;-92
2024/01/24 00:04:00;;;;;;;1.37;1.27;;;11.60;99.90;;;;;;5002843;28;20186;-93
2024/01/24 00:06:26;;;;;;;0.60;0.47;;;11.70;99.90;;;;;;5017472;28;20211;-94
2024/01/24 00:08:53;;;;;;;1.03;0.73;;;11.80;99.90;;;;;;5019523;28;20223;-93
2024/01/24 00:11:19;;;;;;;1.27;0.57;;;11.80;99.90;;;;;;5020306;28;20570;-95
2024/01/24 00:13:47;;;;;;;6.00;2.63;;;11.80;99.90;;;;;;5003784;28;20233;-93
2024/01/24 00:16:13;;;;;;;1.27;1.20;;;11.70;99.90;;;;;;5020168;28;20249;-93
2024/01/24 00:18:38;;;;;;;1.87;0.80;;;11.80;99.90;;;;;;5019056;28;20180;-93
2024/01/24 00:21:04;;;;;;;3.63;0.97;;;11.80;99.90;;;;;;5018903;28;20222;-94
2024/01/24 00:23:30;;;;;;;1.37;0.90;;;11.70;99.90;;;;;;5015810;28;20231;-94
2024/01/24 00:25:56;;;;;;;1.03;1.03;;;11.80;99.90;;;;;;4996924;28;20677;-93
2024/01/24 00:28:26;;;;;;;4.50;1.83;;;11.70;99.90;;;;;;5001056;28;20215;-93
2024/01/24 00:30:52;;;;;;;20.87;1.80;;;11.60;99.90;;;;;;5001429;28;20184;-92
2024/01/24 00:33:18;;;;;;;5.90;1.40;;;11.60;99.90;;;;;;5017220;28;20210;-93
2024/01/24 00:35:44;;;;;;;1.37;1.20;;;11.60;99.90;;;;;;5016698;28;20691;-93
2024/01/24 00:38:10;;;;;;;0.67;0.67;;;11.60;99.90;;;;;;5017514;28;20219;-92
2024/01/24 00:40:36;;;;;;;1.00;0.57;;;11.80;99.90;;;;;;4996083;28;20730;-94
2024/01/24 00:43:03;;;;;;;4.17;0.87;;;11.80;99.90;;;;;;5016391;28;20176;-92
2024/01/24 00:45:28;;;;;;;3.37;0.40;;;11.90;99.90;;;;;;5018414;28;20208;-93
2024/01/24 00:47:54;;;;;;;4.43;1.33;;;11.80;99.90;;;;;;5020186;28;20220;-94
2024/01/24 00:50:20;;;;;;;2.63;1.07;;;11.80;99.90;;;;;;5016620;28;20744;-93
2024/01/24 00:52:51;;;;;;;0.50;0.37;;;11.80;99.90;;;;;;5014012;28;20211;-92
2024/01/24 00:55:24;;;;;;;0.40;0.40;;;11.90;99.90;;;;;;5021092;28;20272;-94
2024/01/24 00:57:53;;;;;;;0.93;0.93;;;11.90;99.90;;;;;;5021775;28;20599;-95
2024/01/24 01:00:19;;;;;;;3.13;0.93;;;11.90;99.90;;;;;;5023872;28;20263;-95
2024/01/24 01:02:51;;;;;;;0.40;0.40;;;11.90;99.90;;;;;;5023918;28;20241;-93
2024/01/24 01:05:17;;;;;;;1.60;0.60;;;12.00;99.90;;;;;;5025724;28;20266;-93
2024/01/24 01:07:45;;;;;;;6.70;0.50;;;11.90;99.90;;;;;;5024366;28;20207;-95
2024/01/24 01:10:11;;;;;;;19.13;1.03;;;12.00;99.90;;;;;;5023875;28;20709;-94
2024/01/24 01:12:37;;;;;;;0.97;0.97;;;11.90;99.90;;;;;;5022178;28;20203;-94
2024/01/24 01:15:06;;;;;;;2.43;1.33;;;12.00;99.90;;;;;;5005492;28;20223;-95
2024/01/24 01:17:31;;;;;;;5.50;1.23;;;12.00;99.90;;;;;;5003755;28;20226;-91
2024/01/24 01:19:58;;;;;;;19.67;1.73;;;11.90;99.90;;;;;;5019514;28;20562;-93
2024/01/24 01:22:24;;;;;;;1.77;0.63;;;12.00;99.90;;;;;;5002889;28;20233;-92
2024/01/24 01:24:50;;;;;;;2.97;1.07;;;12.00;99.90;;;;;;5020644;28;20311;-93
2024/01/24 01:27:16;;;;;;;2.97;1.03;;;12.00;99.90;;;;;;5023489;28;20187;-93
2024/01/24 01:29:42;;;;;;;2.57;0.90;;;11.90;99.90;;;;;;5022579;28;20665;-94
2024/01/24 01:32:08;;;;;;;4.13;1.30;;;12.00;99.90;;;;;;5021947;28;20215;-93
2024/01/24 01:34:33;;;;;;;6.53;1.27;;;12.00;99.90;;;;;;5017941;28;20230;-92
2024/01/24 01:36:59;;;;;;;1.20;0.93;;;11.90;99.90;;;;;;5000770;28;20257;-91
2024/01/24 01:39:25;;;;;;;1.60;1.50;;;11.90;99.90;;;;;;5001837;28;20191;-90
2024/01/24 01:41:51;;;;;;;3.87;0.83;;;11.90;99.90;;;;;;5018370;28;20223;-93
2024/01/24 01:44:17;;;;;;;1.23;1.03;;;12.00;99.90;;;;;;5019931;28;20223;-93
2024/01/24 01:46:46;;;;;;;1.60;1.07;;;12.00;99.90;;;;;;5002740;28;20247;-93
2024/01/24 01:49:13;;;;;;;1.87;1.47;;;11.90;99.90;;;;;;5018955;28;20219;-93
2024/01/24 01:51:39;;;;;;;1.90;1.23;;;11.90;99.90;;;;;;5001490;28;20274;-96
2024/01/24 01:54:08;;;;;;;6.80;1.07;;;12.00;99.90;;;;;;5019238;28;20207;-94
2024/01/24 01:56:35;;;;;;;0.70;0.70;;;11.90;99.90;;;;;;5019706;28;20215;-94
2024/01/24 01:59:05;;;;;;;1.50;0.43;;;12.00;99.90;;;;;;5002967;28;20215;-93
2024/01/24 02:01:31;;;;;;;3.17;0.70;;;11.90;99.90;;;;;;5018845;28;20560;-94
2024/01/24 02:03:58;;;;;;;2.33;1.03;;;11.90;99.90;;;;;;5019209;28;20179;-93
2024/01/24 02:06:24;;;;;;;6.03;0.40;;;12.00;99.90;;;;;;5018465;28;20217;-95
2024/01/24 02:08:51;;;;;;;1.27;1.23;;;11.80;99.90;;;;;;4997534;28;20220;-95
2024/01/24 02:11:20;;;;;;;0.20;0.20;;;12.00;99.90;;;;;;5009304;28;20215;-95
2024/01/24 02:13:46;;;;;;;6.13;0.77;;;11.80;99.90;;;;;;5001402;28;20222;-94
2024/01/24 02:16:13;;;;;;;1.20;0.60;;;11.90;99.90;;;;;;4999957;28;20227;-93
2024/01/24 02:18:42;;;;;;;1.03;1.03;;;11.80;99.90;;;;;;5002603;28;20210;-94
2024/01/24 02:21:08;;;;;;;3.50;1.47;;;11.80;99.90;;;;;;4999571;28;20663;-93
2024/01/24 02:23:35;;;;;;;0.10;0.10;;;11.80;99.90;;;;;;4999121;28;20250;-92
2024/01/24 02:26:01;;;;;;;1.87;0.87;;;11.80;99.90;;;;;;5017370;28;20246;-94
2024/01/24 02:28:26;;;;;;;1.33;0.73;;;11.70;99.90;;;;;;5014407;28;20651;-93
2024/01/24 02:30:52;;;;;;;5.30;1.03;;;11.60;99.90;;;;;;4999595;28;20187;-92
2024/01/24 02:33:18;;;;;;;3.60;1.97;;;11.60;99.90;;;;;;4999590;28;20584;-93
2024/01/24 02:35:43;;;;;;;8.67;1.07;;;11.60;99.90;;;;;;4999031;28;20250;-94
2024/01/24 02:38:09;;;;;;;0.73;0.23;;;11.60;99.90;;;;;;4999672;28;20269;-94
2024/01/24 02:40:36;;;;;;;3.80;1.13;;;11.50;99.90;;;;;;4999848;28;20737;-92
2024/01/24 02:43:02;;;;;;;0.57;0.57;;;11.50;99.90;;;;;;4999023;28;20180;-92
2024/01/24 02:45:28;;;;;;;1.43;1.30;;;11.40;99.90;;;;;;4999950;28;20235;-92
2024/01/24 02:47:54;;;;;;;2.30;0.60;;;11.40;99.90;;;;;;5002071;28;20215;-90
2024/01/24 02:50:22;;;;;;;1.57;0.97;;;11.50;99.90;;;;;;5000690;28;20280;-93
2024/01/24 02:52:48;;;;;;;8.47;1.40;;;11.40;99.90;;;;;;5000419;28;20222;-91
2024/01/24 02:55:15;;;;;;;2.40;0.97;;;11.40;99.90;;;;;;5000160;28;20223;-93
2024/01/24 02:57:41;;;;;;;1.50;1.40;;;11.30;99.90;;;;;;5018141;28;20183;-93
2024/01/24 03:00:08;;;;;;;2.07;1.97;;;11.40;99.90;;;;;;5016426;28;20219;-93
2024/01/24 03:02:34;;;;;;;3.83;1.07;;;11.30;99.90;;;;;;5015140;28;20207;-93
2024/01/24 03:05:00;;;;;;;2.30;0.87;;;11.40;99.90;;;;;;4999222;28;20277;-95
2024/01/24 03:07:27;;;;;;;2.13;0.40;;;11.40;99.90;;;;;;5016264;28;20207;-94
2024/01/24 03:09:52;;;;;;;0.23;0.20;;;11.40;99.90;;;;;;5015544;28;20176;-93
2024/01/24 03:12:19;;;;;;;6.90;1.50;;;11.30;99.90;;;;;;5015906;28;20176;-93
2024/01/24 03:14:45;;;;;;;0.40;0.40;;;11.30;99.90;;;;;;4999664;28;20239;-92
2024/01/24 03:17:11;;;;;;;0.33;0.33;;;11.30;99.90;;;;;;4997246;28;20272;-94
2024/01/24 03:19:37;;;;;;;3.30;0.77;;;11.30;99.90;;;;;;5004364;28;20223;-92
2024/01/24 03:22:03;;;;;;;1.60;0.73;;;11.40;99.90;;;;;;5016664;28;20629;-92
2024/01/24 03:24:29;;;;;;;0.93;0.80;;;11.30;99.90;;;;;;5017036;28;20229;-92
2024/01/24 03:26:55;;;;;;;0.20;0.20;;;11.20;99.90;;;;;;4998570;28;20227;-93
2024/01/24 03:29:21;;;;;;;1.70;1.07;;;11.20;99.90;;;;;;5024428;28;20217;-92
2024/01/24 03:31:47;;;;;;;8.77;0.33;;;11.30;99.90;;;;;;5020428;28;20270;-92
2024/01/24 03:34:13;;;;;;;2.87;2.67;;;11.20;99.90;;;;;;5000836;28;20211;-93
2024/01/24 03:36:39;;;;;;;1.07;1.00;;;11.20;99.90;;;;;;5015973;28;20172;-93
2024/01/24 03:39:05;;;;;;;4.73;1.87;;;11.20;99.90;;;;;;4999247;28;20799;-93
2024/01/24 03:41:30;;;;;;;1.33;1.23;;;11.20;99.90;;;;;;4999336;28;20238;-92
2024/01/24 03:43:56;;;;;;;18.03;1.73;;;11.30;99.90;;;;;;4998765;28;20279;-93
2024/01/24 03:46:22;;;;;;;0.50;0.50;;;11.30;99.90;;;;;;4997412;28;20302;-92
2024/01/24 03:48:48;;;;;;;2.37;0.97;;;11.30;99.90;;;;;;4998487;28;20616;-92
2024/01/24 03:51:14;;;;;;;0.33;0.33;;;11.30;99.90;;;;;;5000054;28;20572;-92
2024/01/24 03:53:40;;;;;;;2.33;1.67;;;11.40;99.90;;;;;;4997461;28;20594;-92
2024/01/24 03:56:06;;;;;;;1.30;0.97;;;11.20;99.90;;;;;;4998534;28;20215;-91
2024/01/24 03:58:32;;;;;;;0.63;0.47;;;11.20;99.90;;;;;;4998019;28;20726;-93
2024/01/24 04:00:58;;;;;;;3.30;1.83;;;11.40;99.90;;;;;;5007754;28;20702;-92
2024/01/24 04:03:24;;;;;;;4.80;2.40;;;11.30;99.90;;;;;;5028496;28;20719;-92
2024/01/24 04:05:50;;;;;;;4.83;1.40;;;11.20;99.90;;;;;;5014739;28;20296;-92
2024/01/24 04:08:16;;;;;;;11.80;1.33;;;11.10;99.90;;;;;;5013931;28;20766;-92
2024/01/24 04:10:41;;;;;;;0.33;0.33;;;11.10;99.90;;;;;;5013813;28;20647;-91
2024/01/24 04:13:07;;;;;;;6.80;0.83;;;11.10;99.90;;;;;;5013045;28;20207;-92
2024/01/24 04:15:33;;;;;;;10.67;1.40;;;10.90;99.90;;;;;;4997576;28;20270;-91
2024/01/24 04:17:59;;;;;;;1.77;0.80;;;11.00;99.90;;;;;;5012929;28;20237;-92
2024/01/24 04:20:25;;;;;;;6.63;1.00;;;10.80;99.90;;;;;;4997544;28;20380;-93
2024/01/24 04:22:50;;;;;;;1.20;0.60;;;10.90;99.90;;;;;;5013495;28;20744;-92
2024/01/24 04:25:16;;;;;;;0.90;0.90;;;10.70;99.90;;;;;;4997001;28;20226;-95
2024/01/24 04:27:42;;;;;;;9.97;1.60;;;10.70;99.90;;;;;;4998456;28;20568;-92
2024/01/24 04:30:08;;;;;;;3.00;0.93;;;10.60;99.90;;;;;;4996984;28;20674;-92
2024/01/24 04:32:34;;;;;;;5.40;3.40;;;10.50;99.90;;;;;;5013215;28;20219;-90
2024/01/24 04:35:00;;;;;;;4.70;0.63;;;10.60;99.90;;;;;;5015126;28;20242;-93
2024/01/24 04:37:26;;;;;;;5.73;3.07;;;10.70;99.90;;;;;;5015710;28;20219;-92
2024/01/24 04:39:52;;;;;;;8.83;0.70;;;10.70;99.90;;;;;;5000076;28;20213;-91
2024/01/24 04:42:17;;;;;;;8.20;1.80;;;10.60;99.90;;;;;;5016837;28;20210;-91
2024/01/24 04:44:43;;;;;;;1.20;0.90;;;10.60;99.90;;;;;;5016974;28;20655;-92
2024/01/24 04:47:09;;;;;;;5.03;2.20;;;10.60;99.90;;;;;;5016342;28;20215;-92
2024/01/24 04:49:35;;;;;;;13.97;1.97;;;10.60;99.90;;;;;;5016520;28;20568;-95
2024/01/24 04:52:02;;;;;;;7.43;2.67;;;10.50;99.90;;;;;;5012064;28;20225;-92
2024/01/24 04:54:28;;;;;;;2.77;2.50;;;10.60;99.90;;;;;;5015054;28;20184;-94
2024/01/24 04:56:54;;;;;;;2.80;2.53;;;10.60;99.90;;;;;;5018131;28;20226;-93
2024/01/24 04:59:19;;;;;;;7.80;2.67;;;10.60;99.90;;;;;;5023815;28;20241;-94
2024/01/24 05:01:47;;;;;;;4.63;1.23;;;10.60;99.90;;;;;;5024675;28;20552;-92
2024/01/24 05:04:12;;;;;;;4.13;2.47;;;10.70;99.90;;;;;;5000051;28;20255;-94
2024/01/24 05:06:38;;;;;;;3.97;0.80;;;10.60;99.90;;;;;;5000092;28;20219;-93
2024/01/24 05:09:04;;;;;;;2.23;2.10;;;10.60;99.90;;;;;;5015922;28;20215;-93
2024/01/24 05:11:30;;;;;;;11.87;3.40;;;10.60;99.90;;;;;;5015639;28;20239;-95
2024/01/24 05:14:00;;;;;;;9.63;1.43;;;10.70;99.90;;;;;;4999913;28;20603;-93
2024/01/24 05:16:26;;;;;;;2.90;0.90;;;10.70;99.90;;;;;;4999983;28;20223;-93
2024/01/24 05:18:52;;;;;;;1.90;1.57;;;10.70;99.90;;;;;;5015443;28;20237;-94
2024/01/24 05:21:18;;;;;;;3.30;1.50;;;10.60;99.90;;;;;;4999532;28;20188;-93
2024/01/24 05:23:44;;;;;;;1.77;1.13;;;10.60;99.90;;;;;;4998997;28;20239;-93
2024/01/24 05:26:10;;;;;;;1.27;1.13;;;10.60;99.90;;;;;;4998806;28;20308;-93
2024/01/24 05:28:35;;;;;;;18.43;2.10;;;10.50;99.90;;;;;;4998966;28;20214;-93
2024/01/24 05:31:02;;;;;;;16.37;2.23;;;10.50;99.90;;;;;;4998586;28;20206;-94
2024/01/24 05:33:28;;;;;;;4.63;1.93;;;10.50;99.90;;;;;;4999286;28;20270;-94
2024/01/24 05:35:54;;;;;;;6.17;1.60;;;10.40;99.90;;;;;;5014596;28;20258;-94
2024/01/24 05:38:20;;;;;;;2.90;0.53;;;10.40;99.90;;;;;;5015526;28;20215;-94
2024/01/24 05:40:45;;;;;;;4.03;1.40;;;10.40;99.90;;;;;;4999405;28;20222;-93
2024/01/24 05:43:12;;;;;;;2.27;1.13;;;10.40;99.90;;;;;;5015825;28;20244;-93
2024/01/24 05:45:38;;;;;;;20.33;3.10;;;10.40;99.90;;;;;;5015344;28;20215;-94
2024/01/24 05:48:04;;;;;;;2.13;1.60;;;10.40;99.90;;;;;;5014847;28;20686;-93
2024/01/24 05:50:30;;;;;;;2.00;0.87;;;10.40;99.90;;;;;;5014907;28;20555;-93
2024/01/24 05:52:58;;;;;;;0.93;0.80;;;10.40;99.90;;;;;;4999145;28;20273;-93
2024/01/24 05:55:23;;;;;;;2.37;2.20;;;10.40;99.90;;;;;;4999194;28;20207;-94
2024/01/24 05:57:50;;;;;;;6.20;2.57;;;10.30;99.90;;;;;;5014823;28;20198;-92
2024/01/24 06:00:16;;;;;;;22.37;4.37;;;10.30;99.90;;;;;;4999297;28;20203;-92
2024/01/24 06:02:45;;;;;;;3.37;1.27;;;10.40;99.90;;;;;;5014709;28;20238;-93
2024/01/24 06:05:11;;;;;;;5.93;1.60;;;10.40;99.90;;;;;;5015726;28;20655;-94
2024/01/24 06:07:37;;;;;;;1.60;1.50;;;10.40;99.90;;;;;;4998686;28;20246;-93
2024/01/24 06:10:04;;;;;;;2.13;1.23;;;10.40;99.90;;;;;;4990455;28;20608;-94
2024/01/24 06:12:29;;;;;;;1.47;1.37;;;10.30;99.90;;;;;;5015295;28;20175;-93
2024/01/24 06:14:55;;;;;;;8.80;1.33;;;10.30;99.90;;;;;;4998756;28;20227;-94
2024/01/24 06:17:22;;;;;;;9.23;1.60;;;10.20;99.90;;;;;;4998067;28;20288;-93
2024/01/24 06:19:50;;;;;;;3.83;1.43;;;10.30;99.90;;;;;;4997725;28;20239;-92
2024/01/24 06:22:16;;;;;;;2.13;1.40;;;10.20;99.90;;;;;;4997406;28;20300;-92
2024/01/24 06:24:42;;;;;;;2.23;1.97;;;10.20;99.90;;;;;;4997916;28;20519;-93
2024/01/24 06:27:08;;;;;;;7.07;2.40;;;10.10;99.90;;;;;;5013911;28;20234;-92
2024/01/24 06:29:34;;;;;;;1.40;1.20;;;10.00;99.90;;;;;;4997312;28;20269;-93
2024/01/24 06:32:00;;;;;;;5.27;0.63;;;10.00;99.90;;;;;;5014609;28;20219;-91
2024/01/24 06:34:26;;;;;;;1.03;0.63;;;10.00;99.90;;;;;;4997284;28;20271;-92
2024/01/24 06:36:52;;;;;;;4.20;1.67;;;10.00;99.90;;;;;;4997181;28;20183;-91
2024/01/24 06:39:18;;;;;;;0.47;0.40;;;10.00;99.90;;;;;;4998184;28;20628;-92
2024/01/24 06:41:44;;;;;;;1.87;1.40;;;9.90;99.90;;;;;;5013900;28;20226;-93
2024/01/24 06:44:10;;;;;;;0.63;0.50;;;10.00;99.90;;;;;;5013576;28;20255;-92
2024/01/24 06:46:43;;;;;;;3.53;1.90;;;10.00;99.90;;;;;;4997111;28;20672;-92
2024/01/24 06:49:10;;;;;;;1.03;0.73;;;10.00;99.90;;;;;;5013240;28;20242;-91
2024/01/24 06:51:39;;;;;;;2.17;1.93;;;10.00;99.90;;;;;;4998328;28;20313;-92
2024/01/24 06:54:05;;;;;;;5.80;1.47;;;10.10;99.90;;;;;;5013312;28;20253;-91
2024/01/24 06:56:31;;;;;;;1.47;1.47;;;10.00;99.90;;;;;;5013380;28;20314;-92
2024/01/24 06:58:58;;;;;;;3.20;2.20;;;9.90;99.90;;;;;;5012937;28;20594;-90
2024/01/24 07:01:23;;;;;;;4.20;2.07;;;10.00;99.90;;;;;;5013184;28;20226;-92
2024/01/24 07:03:49;;;;;;;3.47;2.13;;;10.00;99.90;;;;;;4996982;28;20179;-91
2024/01/24 07:06:15;;;;;;;7.23;3.00;;;10.00;99.90;;;;;;4997608;28;20203;-91
2024/01/24 07:08:41;;;;;;;1.23;1.10;;;10.00;99.90;;;;;;5013213;28;20223;-90
2024/01/24 07:11:07;;;;;;;7.40;1.10;;;10.00;99.90;;;;;;5013235;28;20226;-90
2024/01/24 07:13:34;;;;;;;1.23;0.77;;;10.00;99.90;;;;;;5013643;28;20679;-91
2024/01/24 07:16:02;;;;;;;17.63;1.60;;;10.10;99.90;;;;;;4996849;28;20194;-90
2024/01/24 07:18:28;;;;;;;5.07;1.43;;;10.10;99.90;;;;;;4998776;28;20180;-94
2024/01/24 07:20:54;;;;;;;7.47;1.93;;;10.00;99.90;;;;;;4997645;28;20227;-90
2024/01/24 07:23:20;;;;;;;3.73;1.97;;;10.00;99.90;;;;;;5015432;28;20242;-91
2024/01/24 07:25:46;;;;;;;3.07;1.50;;;10.00;99.90;;;;;;5045799;28;20222;-92
2024/01/24 07:28:11;;;;;;;0.57;0.57;;;10.00;99.90;;;;;;4996327;28;20293;-90
2024/01/24 07:30:37;;;;;;;15.03;1.87;;;10.00;99.90;;;;;;4996417;28;20233;-90
2024/01/24 07:33:05;;;;;;;6.70;2.63;;;10.00;99.90;;;;;;4996272;28;20269;-92
2024/01/24 07:35:31;;;;;;;1.83;1.53;;;10.00;99.90;;;;;;5013551;28;20219;-91
2024/01/24 07:37:57;;;;;;;7.00;2.87;;;10.00;99.90;;;;;;4998940;28;20632;-92
2024/01/24 07:40:24;;;;;;;1.63;1.30;;;10.00;99.90;;;;;;4996588;28;20219;-92
2024/01/24 07:42:50;;;;;;;20.23;2.77;;;9.90;99.90;;;;;;4996836;28;20178;-90
2024/01/24 07:45:19;;;;;;;12.10;2.77;;;9.90;99.90;;;;;;5013286;28;20219;-86
2024/01/24 07:47:48;;;;;;;3.90;1.27;;;10.00;99.90;;;;;;4996502;28;20716;-95
2024/01/24 07:50:15;;;;;;;6.93;1.93;;;10.00;99.90;;;;;;5012096;28;20221;-95
2024/01/24 07:52:43;;;;;;;6.27;2.60;;;9.90;99.90;;;;;;5022431;28;20211;-94
2024/01/24 07:55:10;;;;;;;4.47;1.53;;;9.90;99.90;;;;;;5024221;28;20321;-94
2024/01/24 07:57:36;;;;;;;6.67;0.80;;;9.90;99.90;;;;;;5017510;28;20179;-94
2024/01/24 08:00:06;;;;;;;8.77;1.80;;;9.90;99.90;;;;;;4997889;28;20216;-94
2024/01/24 08:02:32;;;;;;;6.70;2.53;;;9.90;99.90;;;;;;4997043;28;20223;-93
2024/01/24 08:04:58;;;;;;;8.63;2.03;;;9.90;99.90;;;;;;5012972;28;20231;-93
2024/01/24 08:07:24;;;;;;;5.23;1.63;;;9.90;99.90;;;;;;4997693;28;20278;-93
2024/01/24 08:09:50;;;;;;;0.80;0.80;;;10.00;99.90;;;;;;5017237;28;20262;-93
2024/01/24 08:12:18;;;;;;;7.23;1.90;;;10.00;99.90;;;;;;5019832;28;20266;-95
2024/01/24 08:14:48;;;;;;;1.30;1.20;;;10.00;99.90;;;;;;5017252;28;20608;-95
2024/01/24 08:17:14;;;;;;;6.37;2.40;;;10.10;99.90;;;;;;5003366;28;20280;-94
2024/01/24 08:19:40;;;;;;;0.70;0.70;;;10.10;99.90;;;;;;5018805;28;20251;-93
2024/01/24 08:22:06;;;;;;;0.70;0.50;;;10.20;99.90;;;;;;5002424;28;20262;-95
2024/01/24 08:24:32;;;;;;;1.20;1.00;;;10.20;99.90;;;;;;5002868;28;20322;-95
2024/01/24 08:26:58;;;;;;;2.00;0.83;;;10.20;99.90;;;;;;5018987;28;20235;-95
2024/01/24 08:29:27;;;;;;;2.00;1.80;;;10.20;99.90;;;;;;5019553;28;20269;-94
2024/01/24 08:31:53;;;;;;;9.70;1.60;;;10.20;99.90;;;;;;5002753;28;20222;-94
2024/01/24 08:34:19;;;;;;;1.97;1.87;;;10.20;99.90;;;;;;5002552;28;20211;-95
2024/01/24 08:36:45;;;;;;;3.67;1.50;;;10.30;99.90;;;;;;5003614;28;20175;-91
2024/01/24 08:39:12;;;;;;;2.93;1.97;;;10.30;99.90;;;;;;5003591;28;20179;-94
2024/01/24 08:41:38;;;;;;;7.00;2.73;;;10.30;99.90;;;;;;5002189;28;20215;-93
2024/01/24 08:44:04;;;;;;;4.40;1.27;;;10.30;99.90;;;;;;5002478;28;20211;-95
2024/01/24 08:46:31;;;;;;;6.27;2.67;;;10.30;99.90;;;;;;5018538;28;20721;-92
2024/01/24 08:48:57;;;;;;;13.17;2.27;;;10.30;99.90;;;;;;5002617;28;20270;-93
2024/01/24 08:51:31;;;;;;;1.47;1.37;;;10.40;99.90;;;;;;5020622;28;20269;-95
2024/01/24 08:53:59;;;;;;;5.77;1.93;;;10.40;99.90;;;;;;5004227;28;20223;-93
2024/01/24 08:56:25;;;;;;;11.37;1.60;;;10.30;99.90;;;;;;5003248;28;20223;-93
2024/01/24 08:58:50;;;;;;;3.03;2.70;;;10.30;99.90;;;;;;5002837;28;20246;-93
2024/01/24 09:01:18;;;;;;;0.70;0.50;;;10.40;99.90;;;;;;5001475;28;20207;-94
2024/01/24 09:03:51;;;;;;;6.43;1.47;;;10.30;99.90;;;;;;5003509;28;20179;-94
2024/01/24 09:06:17;;;;;;;1.93;0.90;;;10.30;99.90;;;;;;5051887;28;20672;-93
2024/01/24 09:08:44;;;;;;;4.63;1.80;;;10.40;99.90;;;;;;5002543;28;20207;-93
2024/01/24 09:11:17;;;;;;;7.20;3.23;;;10.30;99.90;;;;;;5019984;28;20222;-93
2024/01/24 09:13:45;;;;;;;10.20;2.93;;;10.30;99.90;;;;;;5016502;28;20222;-93
2024/01/24 09:16:13;;;;;;;1.20;1.20;;;10.30;99.90;;;;;;5018833;28;20218;-93
2024/01/24 09:18:41;;;;;;;5.03;1.23;;;10.30;99.90;;;;;;5020804;28;20604;-93
2024/01/24 09:21:07;;;;;;;5.17;1.53;;;10.30;99.90;;;;;;5000210;28;20243;-95
2024/01/24 09:23:33;;;;;;;3.73;1.40;;;10.30;99.90;;;;;;5015928;28;20243;-94
2024/01/24 09:26:03;;;;;;;0.37;0.37;;;10.30;99.90;;;;;;4999803;28;20226;-94
2024/01/24 09:28:29;;;;;;;5.77;1.53;;;10.40;99.90;;;;;;5017884;28;20307;-93
2024/01/24 09:30:55;;;;;;;5.43;1.30;;;10.40;99.90;;;;;;5028489;28;20179;-92
2024/01/24 09:33:24;;;;;;;4.23;0.83;;;10.40;99.90;;;;;;5015801;28;20176;-93
2024/01/24 09:35:50;;;;;;;4.63;1.47;;;10.40;99.90;;;;;;5013441;28;20707;-92
2024/01/24 09:38:16;;;;;;;0.10;0.10;;;10.40;99.90;;;;;;4996129;28;20224;-92
2024/01/24 09:40:42;;;;;;;14.63;3.60;;;10.40;99.90;;;;;;5014989;28;20214;-95
2024/01/24 09:43:10;;;;;;;2.97;2.10;;;10.40;99.90;;;;;;5014592;28;20222;-92
2024/01/24 09:45:39;;;;;;;10.47;2.33;;;10.40;99.90;;;;;;5015655;28;20218;-93
2024/01/24 09:48:08;;;;;;;2.57;2.13;;;10.40;99.90;;;;;;5014636;28;20223;-92
2024/01/24 09:50:34;;;;;;;2.60;1.93;;;10.40;99.90;;;;;;5015079;28;20282;-91
2024/01/24 09:53:03;;;;;;;0.40;0.40;;;10.50;99.90;;;;;;4997394;28;20235;-90
2024/01/24 09:55:31;;;;;;;4.33;0.53;;;10.50;99.90;;;;;;5014313;28;20293;-94
2024/01/24 09:57:57;;;;;;;18.87;3.63;;;10.50;99.90;;;;;;4996950;28;20250;-91
2024/01/24 10:00:23;;;;;;;4.43;1.70;;;10.50;99.90;;;;;;4998562;28;20564;-93
2024/01/24 10:02:49;;;;;;;2.53;0.50;;;10.50;99.90;;;;;;4998451;28;20231;-92
2024/01/24 10:05:20;;;;;;;1.90;1.40;;;10.50;99.90;;;;;;5014013;28;20709;-94
2024/01/24 10:07:46;;;;;;;6.33;1.10;;;10.50;99.90;;;;;;5014763;28;20219;-93
2024/01/24 10:10:13;;;;;;;2.33;1.43;;;10.50;99.90;;;;;;5014291;28;20290;-92
2024/01/24 10:12:43;;;;;;;4.63;1.57;;;10.50;99.90;;;;;;4998479;28;20225;-92
2024/01/24 10:15:13;;;;;;;2.73;1.13;;;10.50;99.90;;;;;;5014411;28;20219;-92
2024/01/24 10:17:43;;;;;;;3.40;1.00;;;10.50;99.90;;;;;;4997756;28;20239;-92
2024/01/24 10:20:14;;;;;;;3.50;2.83;;;10.50;99.90;;;;;;4997879;28;20222;-92
2024/01/24 10:22:42;;;;;;;2.27;1.43;;;10.60;99.90;;;;;;5013787;28;20288;-91
2024/01/24 10:25:11;;;;;;;0.93;0.70;;;10.60;99.90;;;;;;5014212;28;20338;-92
2024/01/24 10:27:41;;;;;;;3.80;1.07;;;10.60;99.90;;;;;;5015839;28;20282;-93
2024/01/24 10:30:12;;;;;;;4.33;1.77;;;10.60;99.90;;;;;;5013710;28;20754;-91
2024/01/24 10:32:49;;;;;;;7.43;2.20;;;10.50;99.90;;;;;;4998959;28;20283;-94
2024/01/24 10:35:39;;;;;;;9.20;2.07;;;10.50;99.90;;;;;;5018420;28;20226;-96
2024/01/24 10:38:26;;;;;;;1.77;0.37;;;10.50;99.90;;;;;;5022705;28;20219;-95
2024/01/24 10:41:01;;;;;;;1.17;0.73;;;10.50;99.90;;;;;;5000180;28;20671;-95
2024/01/24 10:43:45;;;;;;;8.80;0.97;;;10.50;99.90;;;;;;5017443;28;20221;-95
2024/01/24 10:46:36;;;;;;;1.43;1.33;;;10.50;99.90;;;;;;5021250;28;20306;-95
2024/01/24 10:49:12;;;;;;;7.43;1.37;;;10.50;99.90;;;;;;5000973;28;20191;-95
2024/01/24 10:51:46;;;;;;;3.07;1.83;;;10.50;99.90;;;;;;5018092;28;20156;-95
2024/01/24 10:54:16;;;;;;;3.07;2.50;;;10.40;99.90;;;;;;5013873;28;20206;-94
2024/01/24 10:56:48;;;;;;;7.00;3.33;;;10.40;99.90;;;;;;4993174;28;20679;-94
2024/01/24 10:59:25;;;;;;;6.00;3.13;;;10.40;99.90;;;;;;4998338;28;20586;-94
2024/01/24 11:02:02;;;;;;;2.83;0.30;;;10.50;99.90;;;;;;5017867;28;20547;-95
2024/01/24 11:04:28;;;;;;;4.30;0.83;;;10.50;99.90;;;;;;5015754;28;20240;-96
2024/01/24 11:07:04;;;;;;;9.83;1.27;;;10.50;99.90;;;;;;5016833;28;20210;-95
2024/01/24 11:10:03;;;;;;;1.80;0.77;;;10.50;99.90;;;;;;5018459;28;20191;-95
2024/01/24 11:12:32;;;;;;;2.87;1.87;;;10.50;99.90;;;;;;5048790;28;20210;-96
2024/01/24 11:15:08;;;;;;;2.73;1.27;;;10.50;99.90;;;;;;5036896;28;20224;-95
2024/01/24 11:17:37;;;;;;;1.73;0.83;;;10.50;99.90;;;;;;4999772;28;20225;-95
2024/01/24 11:20:46;;;;;;;15.67;2.33;;;10.50;99.90;;;;;;5018283;28;20222;-94
2024/01/24 11:23:51;;;;;;;1.50;1.17;;;10.60;99.90;;;;;;5017566;28;20237;-96
2024/01/24 11:26:19;;;;;;;2.03;1.67;;;10.40;99.90;;;;;;5015006;28;20325;-92
2024/01/24 11:28:46;;;;;;;8.23;1.43;;;10.50;99.90;;;;;;5013966;28;20270;-94
2024/01/24 11:31:13;;;;;;;3.80;1.53;;;10.60;99.90;;;;;;5013084;28;20255;-94
2024/01/24 11:34:08;;;;;;;2.10;1.40;;;10.60;99.90;;;;;;5013985;28;20268;-94
2024/01/24 11:36:52;;;;;;;0.47;0.47;;;10.60;99.90;;;;;;5014437;28;20227;-92
2024/01/24 11:39:30;;;;;;;3.17;0.60;;;10.60;99.90;;;;;;5013624;28;20202;-92
2024/01/24 11:42:25;;;;;;;1.10;0.70;;;10.50;99.90;;;;;;5011575;28;20223;-93
2024/01/24 11:44:53;;;;;;;7.40;1.90;;;10.60;99.90;;;;;;5012719;28;20242;-93
2024/01/24 11:47:23;;;;;;;6.20;1.00;;;10.60;99.90;;;;;;5013239;28;20222;-92
2024/01/24 11:49:50;;;;;;;0.47;0.33;;;10.60;99.90;;;;;;5012726;28;20277;-92
2024/01/24 11:52:22;;;;;;;18.57;1.00;;;10.60;99.90;;;;;;4996036;28;20217;-92
2024/01/24 11:54:52;;;;;;;4.67;1.20;;;10.50;99.90;;;;;;5012722;28;20306;-93
2024/01/24 11:57:18;;;;;;;1.43;0.97;;;10.60;99.90;;;;;;4997168;28;20206;-91
2024/01/24 11:59:43;;;;;;;3.20;1.93;;;10.50;99.90;;;;;;5013710;28;20666;-90
2024/01/24 12:02:09;;;;;;;4.67;1.63;;;10.50;99.90;;;;;;5011834;28;20304;-90
2024/01/24 12:04:35;;;;;;;1.23;1.13;;;10.60;99.90;;;;;;5011386;28;20644;-92
2024/01/24 12:07:01;;;;;;;3.37;1.67;;;10.60;99.90;;;;;;4996197;28;20302;-91
2024/01/24 12:09:27;;;;;;;2.53;1.77;;;10.60;99.90;;;;;;5012627;28;20569;-91
2024/01/24 12:11:53;;;;;;;2.47;1.63;;;10.60;99.90;;;;;;4995705;28;20234;-93
2024/01/24 12:14:20;;;;;;;1.13;0.87;;;10.50;99.90;;;;;;5010970;28;20579;-92
2024/01/24 12:16:48;;;;;;;4.00;0.83;;;10.60;99.90;;;;;;4995915;28;20211;-92
2024/01/24 12:19:15;;;;;;;4.90;2.10;;;10.60;99.90;;;;;;4995920;28;20215;-93
2024/01/24 12:21:41;;;;;;;1.30;1.20;;;10.50;99.90;;;;;;4996175;28;20270;-93
2024/01/24 12:24:08;;;;;;;9.33;1.90;;;10.60;99.90;;;;;;4995699;28;20246;-91
2024/01/24 12:26:35;;;;;;;5.00;2.33;;;10.50;99.90;;;;;;4996091;28;20320;-92
2024/01/24 12:29:03;;;;;;;2.37;0.90;;;10.60;99.90;;;;;;5012270;28;20223;-94
2024/01/24 12:31:29;;;;;;;4.53;1.80;;;10.60;99.90;;;;;;5015509;28;20223;-91
2024/01/24 12:33:58;;;;;;;5.00;2.30;;;10.60;99.90;;;;;;5005038;28;20183;-91
2024/01/24 12:36:24;;;;;;;3.57;1.83;;;10.60;99.90;;;;;;5012782;28;20519;-93
2024/01/24 12:38:54;;;;;;;9.30;3.17;;;10.50;99.90;;;;;;4996284;28;20227;-91
2024/01/24 12:41:21;;;;;;;16.17;1.37;;;10.60;99.90;;;;;;5011521;28;20292;-94
2024/01/24 12:43:47;;;;;;;0.80;0.80;;;10.50;99.90;;;;;;5012444;28;20211;-95
2024/01/24 12:46:13;;;;;;;2.87;1.00;;;10.50;99.90;;;;;;5011710;28;20752;-94
2024/01/24 12:48:39;;;;;;;2.67;1.47;;;10.60;99.90;;;;;;4996778;28;20194;-93